sensor_id;sensor_type;location;lat;lon;timestamp;pressure;altitude;pressure_sealevel;temperature;humidity
31183;BME280;17813;0.000;0.000;2022-12-20T00:02:21;77348.13;;;-142.58;76.87
31183;BME280;17813;0.000;0.000;2022-12-20T00:04:48;77348.13;;;-142.58;76.49
31183;BME280;17813;0.000;0.000;2022-12-20T00:07:15;77331.84;;;-142.58;76.16
31183;BME280;17813;0.000;0.000;2022-12-20T00:09:42;77323.69;;;-142.58;75.53
31183;BME280;17813;0.000;0.000;2022-12-20T00:12:09;77313.53;;;-142.58;75.05
31183;BME280;17813;0.000;0.000;2022-12-20T00:14:36;77305.38;;;-142.58;75.90
31183;BME280;17813;0.000;0.000;2022-12-20T00:17:04;77313.53;;;-142.58;75.71
31183;BME280;17813;0.000;0.000;2022-12-20T00:19:34;77307.53;;;-142.58;74.94
31183;BME280;17813;0.000;0.000;2022-12-20T00:22:01;77313.53;;;-142.58;76.02
31183;BME280;17813;0.000;0.000;2022-12-20T00:24:28;99898.88;;;-142.58;75.29
31183;BME280;17813;0.000;0.000;2022-12-20T00:26:55;77305.50;;;-142.58;75.29
31183;BME280;17813;0.000;0.000;2022-12-20T00:29:22;77287.06;;;-142.58;74.88
31183;BME280;17813;0.000;0.000;2022-12-20T00:31:49;77289.09;;;-142.58;75.41
31183;BME280;17813;0.000;0.000;2022-12-20T00:34:16;77283.00;;;-142.58;75.58
31183;BME280;17813;0.000;0.000;2022-12-20T00:36:43;99881.25;;;3.80;74.65
31183;BME280;17813;0.000;0.000;2022-12-20T00:39:14;99882.97;;;3.81;74.69
31183;BME280;17813;0.000;0.000;2022-12-20T00:41:41;99885.66;;;3.79;74.96
31183;BME280;17813;0.000;0.000;2022-12-20T00:44:14;99885.72;;;3.76;74.69
31183;BME280;17813;0.000;0.000;2022-12-20T00:47:00;99877.66;;;3.84;74.78
31183;BME280;17813;0.000;0.000;2022-12-20T00:49:27;99880.91;;;3.92;74.59
31183;BME280;17813;0.000;0.000;2022-12-20T00:51:54;99876.69;;;3.86;74.99
31183;BME280;17813;0.000;0.000;2022-12-20T00:54:21;99878.38;;;3.89;74.82
31183;BME280;17813;0.000;0.000;2022-12-20T00:56:48;99871.31;;;3.91;74.43
31183;BME280;17813;0.000;0.000;2022-12-20T00:59:15;99876.69;;;3.86;74.67
31183;BME280;17813;0.000;0.000;2022-12-20T01:01:43;99876.56;;;3.91;74.87
31183;BME280;17813;0.000;0.000;2022-12-20T01:04:10;99880.88;;;3.94;74.85
31183;BME280;17813;0.000;0.000;2022-12-20T01:06:37;99869.28;;;4.01;74.77
31183;BME280;17813;0.000;0.000;2022-12-20T01:09:04;99872.00;;;3.98;74.95
31183;BME280;17813;0.000;0.000;2022-12-20T01:11:35;99873.69;;;4.00;74.44
31183;BME280;17813;0.000;0.000;2022-12-20T01:14:11;99880.44;;;4.09;74.48
31183;BME280;17813;0.000;0.000;2022-12-20T01:16:41;99886.53;;;4.09;74.43
31183;BME280;17813;0.000;0.000;2022-12-20T01:19:11;99888.25;;;4.10;74.43
31183;BME280;17813;0.000;0.000;2022-12-20T01:21:53;99896.00;;;4.15;74.62
31183;BME280;17813;0.000;0.000;2022-12-20T01:24:21;77215.84;;;-142.58;74.62
31183;BME280;17813;0.000;0.000;2022-12-20T01:26:48;77201.59;;;-143.88;73.72
31183;BME280;17813;0.000;0.000;2022-12-20T01:29:15;77232.13;;;-142.58;74.34
31183;BME280;17813;0.000;0.000;2022-12-20T01:31:42;77199.56;;;-142.58;74.42
31183;BME280;17813;0.000;0.000;2022-12-20T01:34:10;77189.41;;;-142.58;74.19
31183;BME280;17813;0.000;0.000;2022-12-20T01:36:37;77189.41;;;-142.58;74.58
31183;BME280;17813;0.000;0.000;2022-12-20T01:39:07;77195.50;;;-142.58;74.61
31183;BME280;17813;0.000;0.000;2022-12-20T01:41:45;77207.72;;;-142.58;74.63
31183;BME280;17813;0.000;0.000;2022-12-20T01:46:48;77197.53;;;-142.58;74.34
31183;BME280;17813;0.000;0.000;2022-12-20T01:49:21;77201.59;;;-142.58;74.91
31183;BME280;17813;0.000;0.000;2022-12-20T01:52:07;77197.53;;;-142.58;75.01
31183;BME280;17813;0.000;0.000;2022-12-20T01:54:41;77201.59;;;-143.88;75.31
31183;BME280;17813;0.000;0.000;2022-12-20T01:57:33;77236.19;;;-142.58;75.77
31183;BME280;17813;0.000;0.000;2022-12-20T02:00:04;77201.59;;;-143.88;74.88
31183;BME280;17813;0.000;0.000;2022-12-20T02:02:34;77211.78;;;-142.58;75.69
31183;BME280;17813;0.000;0.000;2022-12-20T02:05:01;77177.19;;;-143.88;75.49
31183;BME280;17813;0.000;0.000;2022-12-20T02:07:30;77205.69;;;-142.58;0.00
31183;BME280;17813;0.000;0.000;2022-12-20T02:10:00;77169.06;;;-143.88;75.78
31183;BME280;17813;0.000;0.000;2022-12-20T02:12:48;77199.56;;;-142.58;76.54
31183;BME280;17813;0.000;0.000;2022-12-20T02:26:57;77158.88;;;-142.58;77.07
31183;BME280;17813;0.000;0.000;2022-12-20T02:29:36;77197.53;;;-142.58;76.60
31183;BME280;17813;0.000;0.000;2022-12-20T02:32:21;77215.84;;;-142.58;77.96
31183;BME280;17813;0.000;0.000;2022-12-20T02:34:50;77219.91;;;-142.58;78.68
31183;BME280;17813;0.000;0.000;2022-12-20T02:37:17;77211.78;;;-142.58;78.80
31183;BME280;17813;0.000;0.000;2022-12-20T02:39:46;77215.84;;;-142.58;78.86
31183;BME280;17813;0.000;0.000;2022-12-20T02:42:16;77213.81;;;-142.58;78.73
31183;BME280;17813;0.000;0.000;2022-12-20T02:45:07;77213.81;;;-142.58;78.89
31183;BME280;17813;0.000;0.000;2022-12-20T02:48:07;77226.03;;;-142.58;79.23
31183;BME280;17813;0.000;0.000;2022-12-20T02:50:39;77228.06;;;-142.58;78.04
31183;BME280;17813;0.000;0.000;2022-12-20T02:53:08;77234.16;;;-142.58;78.59
31183;BME280;17813;0.000;0.000;2022-12-20T02:56:04;77234.16;;;-142.58;78.62
31183;BME280;17813;0.000;0.000;2022-12-20T02:58:49;77234.16;;;-142.58;79.85
31183;BME280;17813;0.000;0.000;2022-12-20T03:01:29;77244.34;;;-142.58;79.39
31183;BME280;17813;0.000;0.000;2022-12-20T03:04:32;77248.41;;;-142.58;80.21
31183;BME280;17813;0.000;0.000;2022-12-20T03:07:08;77264.69;;;-142.58;80.80
31183;BME280;17813;0.000;0.000;2022-12-20T03:09:43;77274.84;;;-142.58;81.38
31183;BME280;17813;0.000;0.000;2022-12-20T03:12:12;77272.81;;;-142.58;81.36
31183;BME280;17813;0.000;0.000;2022-12-20T03:14:49;77256.53;;;-142.58;81.47
31183;BME280;17813;0.000;0.000;2022-12-20T03:17:16;77277.03;;;-142.58;82.72
31183;BME280;17813;0.000;0.000;2022-12-20T03:19:45;77274.84;;;-142.58;82.77
31183;BME280;17813;0.000;0.000;2022-12-20T03:22:13;77272.81;;;-142.58;84.39
31183;BME280;17813;0.000;0.000;2022-12-20T03:24:45;77280.97;;;-142.58;84.49
31183;BME280;17813;0.000;0.000;2022-12-20T03:27:14;77285.03;;;-142.58;84.59
31183;BME280;17813;0.000;0.000;2022-12-20T03:29:43;77272.81;;;-142.58;85.24
31183;BME280;17813;0.000;0.000;2022-12-20T03:32:13;77283.00;;;-142.58;85.42
31183;BME280;17813;0.000;0.000;2022-12-20T03:34:41;77283.00;;;-142.58;85.86
31183;BME280;17813;0.000;0.000;2022-12-20T03:37:18;99805.13;;;-142.58;86.18
31183;BME280;17813;0.000;0.000;2022-12-20T03:39:45;77283.00;;;-142.58;86.17
31183;BME280;17813;0.000;0.000;2022-12-20T03:42:15;77274.84;;;-142.58;86.22
31183;BME280;17813;0.000;0.000;2022-12-20T03:44:42;77270.78;;;-142.58;86.18
31183;BME280;17813;0.000;0.000;2022-12-20T03:47:09;77285.03;;;-142.58;86.30
31183;BME280;17813;0.000;0.000;2022-12-20T03:49:39;77285.03;;;-142.58;86.00
31183;BME280;17813;0.000;0.000;2022-12-20T03:52:08;77289.09;;;-142.58;87.29
31183;BME280;17813;0.000;0.000;2022-12-20T03:54:35;77299.28;;;-142.58;87.17
31183;BME280;17813;0.000;0.000;2022-12-20T03:57:03;77305.38;;;-142.58;86.48
31183;BME280;17813;0.000;0.000;2022-12-20T03:59:33;77325.72;;;-142.58;87.86
31183;BME280;17813;0.000;0.000;2022-12-20T04:02:04;77319.63;;;-142.58;87.61
31183;BME280;17813;0.000;0.000;2022-12-20T04:04:40;77315.56;;;-142.58;88.44
31183;BME280;17813;0.000;0.000;2022-12-20T04:07:08;77305.50;;;-142.58;88.87
31183;BME280;17813;0.000;0.000;2022-12-20T04:09:38;77307.53;;;-142.58;88.58
31183;BME280;17813;0.000;0.000;2022-12-20T04:12:29;77305.50;;;-142.58;89.75
31183;BME280;17813;0.000;0.000;2022-12-20T04:14:56;77299.28;;;-142.58;90.05
31183;BME280;17813;0.000;0.000;2022-12-20T04:17:24;77289.09;;;-142.58;91.00
31183;BME280;17813;0.000;0.000;2022-12-20T04:19:51;77272.81;;;-142.58;91.03
31183;BME280;17813;0.000;0.000;2022-12-20T04:22:17;77280.97;;;-142.58;91.19
31183;BME280;17813;0.000;0.000;2022-12-20T04:24:45;99804.66;;;-142.58;90.70
31183;BME280;17813;0.000;0.000;2022-12-20T04:27:12;77285.03;;;-142.58;90.72
31183;BME280;17813;0.000;0.000;2022-12-20T04:29:42;77280.97;;;-142.58;90.80
31183;BME280;17813;0.000;0.000;2022-12-20T04:32:09;77287.06;;;-142.58;90.01
31183;BME280;17813;0.000;0.000;2022-12-20T04:34:36;77266.72;;;-142.58;90.19
31183;BME280;17813;0.000;0.000;2022-12-20T04:37:16;77258.59;;;-142.58;90.40
31183;BME280;17813;0.000;0.000;2022-12-20T04:39:43;77252.47;;;-142.58;90.01
31183;BME280;17813;0.000;0.000;2022-12-20T04:42:10;77244.34;;;-142.58;90.28
31183;BME280;17813;0.000;0.000;2022-12-20T04:44:40;77232.13;;;-142.58;89.84
31183;BME280;17813;0.000;0.000;2022-12-20T04:47:20;77230.09;;;-142.58;89.60
31183;BME280;17813;0.000;0.000;2022-12-20T04:49:55;77234.16;;;-142.58;88.72
31183;BME280;17813;0.000;0.000;2022-12-20T04:52:22;77230.09;;;-142.58;89.37
31183;BME280;17813;0.000;0.000;2022-12-20T04:55:08;77209.75;;;-142.58;89.97
31183;BME280;17813;0.000;0.000;2022-12-20T04:57:35;77185.31;;;-142.58;89.61
31183;BME280;17813;0.000;0.000;2022-12-20T05:00:02;77173.13;;;-142.58;89.34
31183;BME280;17813;0.000;0.000;2022-12-20T05:02:29;77150.72;;;-142.58;89.37
31183;BME280;17813;0.000;0.000;2022-12-20T05:04:56;77154.81;;;-142.58;87.22
31183;BME280;17813;0.000;0.000;2022-12-20T05:07:23;77169.06;;;-142.58;88.22
31183;BME280;17813;0.000;0.000;2022-12-20T05:09:50;77152.78;;;-142.58;87.90
31183;BME280;17813;0.000;0.000;2022-12-20T05:12:17;77144.63;;;-142.58;87.01
31183;BME280;17813;0.000;0.000;2022-12-20T05:14:44;77146.66;;;-142.58;87.54
31183;BME280;17813;0.000;0.000;2022-12-20T05:17:12;77152.78;;;-142.58;87.48
31183;BME280;17813;0.000;0.000;2022-12-20T05:19:51;77152.78;;;-142.58;88.10
31183;BME280;17813;0.000;0.000;2022-12-20T05:22:21;77148.69;;;-142.58;86.71
31183;BME280;17813;0.000;0.000;2022-12-20T05:25:08;99750.75;;;-142.58;86.91
31183;BME280;17813;0.000;0.000;2022-12-20T05:27:55;77124.28;;;-142.58;86.91
31183;BME280;17813;0.000;0.000;2022-12-20T05:30:23;99736.75;;;-142.58;87.41
31183;BME280;17813;0.000;0.000;2022-12-20T05:32:50;77120.22;;;-142.58;87.42
31183;BME280;17813;0.000;0.000;2022-12-20T05:35:18;77110.03;;;-142.58;87.46
31183;BME280;17813;0.000;0.000;2022-12-20T05:37:46;77112.06;;;-142.58;86.27
31183;BME280;17813;0.000;0.000;2022-12-20T05:40:13;77118.19;;;-142.58;86.02
31183;BME280;17813;0.000;0.000;2022-12-20T05:42:41;77112.06;;;-142.58;85.56
31183;BME280;17813;0.000;0.000;2022-12-20T05:45:09;77114.09;;;-142.58;86.66
31183;BME280;17813;0.000;0.000;2022-12-20T05:47:51;77114.09;;;-142.58;86.37
31183;BME280;17813;0.000;0.000;2022-12-20T05:50:18;77101.91;;;-142.58;85.35
31183;BME280;17813;0.000;0.000;2022-12-20T05:52:45;77116.16;;;-142.58;85.65
31183;BME280;17813;0.000;0.000;2022-12-20T05:55:12;77124.28;;;-142.58;85.07
31183;BME280;17813;0.000;0.000;2022-12-20T05:57:46;77110.03;;;-142.58;85.90
31183;BME280;17813;0.000;0.000;2022-12-20T06:00:14;77083.59;;;-142.58;0.00
31183;BME280;17813;0.000;0.000;2022-12-20T06:02:45;77083.59;;;-142.58;85.03
31183;BME280;17813;0.000;0.000;2022-12-20T06:05:12;77089.69;;;-142.58;84.38
31183;BME280;17813;0.000;0.000;2022-12-20T06:07:40;77097.84;;;-142.58;84.97
31183;BME280;17813;0.000;0.000;2022-12-20T06:10:07;99737.13;;;4.31;84.30
31183;BME280;17813;0.000;0.000;2022-12-20T06:12:36;77071.38;;;-142.58;84.30
31183;BME280;17813;0.000;0.000;2022-12-20T06:15:04;77065.28;;;-143.88;83.53
31183;BME280;17813;0.000;0.000;2022-12-20T06:17:50;99751.72;;;4.40;83.88
31183;BME280;17813;0.000;0.000;2022-12-20T06:20:17;77071.38;;;-142.58;100.00
31183;BME280;17813;0.000;0.000;2022-12-20T06:23:16;77073.41;;;-142.58;82.73
31183;BME280;17813;0.000;0.000;2022-12-20T06:26:05;77073.41;;;-142.58;83.72
31183;BME280;17813;0.000;0.000;2022-12-20T06:28:53;77095.81;;;-143.88;82.64
31183;BME280;17813;0.000;0.000;2022-12-20T06:31:22;77124.28;;;-143.88;83.04
31183;BME280;17813;0.000;0.000;2022-12-20T06:33:49;77122.25;;;-142.58;83.54
31183;BME280;17813;0.000;0.000;2022-12-20T06:36:17;77105.97;;;-142.58;82.96
31183;BME280;17813;0.000;0.000;2022-12-20T06:38:44;77116.16;;;-142.58;99.03
31183;BME280;17813;0.000;0.000;2022-12-20T06:41:15;77122.25;;;-142.58;82.76
31183;BME280;17813;0.000;0.000;2022-12-20T06:43:43;77148.69;;;-142.58;83.34
31183;BME280;17813;0.000;0.000;2022-12-20T06:46:10;77164.97;;;-142.58;83.00
31183;BME280;17813;0.000;0.000;2022-12-20T06:48:49;77150.72;;;-142.58;83.38
31183;BME280;17813;0.000;0.000;2022-12-20T06:51:16;77142.59;;;-142.58;84.59
31183;BME280;17813;0.000;0.000;2022-12-20T06:54:01;77140.56;;;-142.58;83.32
31183;BME280;17813;0.000;0.000;2022-12-20T06:56:29;77154.81;;;-142.58;83.94
31183;BME280;17813;0.000;0.000;2022-12-20T06:58:56;77156.84;;;-142.58;82.78
31183;BME280;17813;0.000;0.000;2022-12-20T07:01:23;77154.81;;;-142.58;83.49
31183;BME280;17813;0.000;0.000;2022-12-20T07:03:52;33182.50;;;-142.58;82.69
31183;BME280;17813;0.000;0.000;2022-12-20T07:06:19;77156.84;;;-142.58;82.64
31183;BME280;17813;0.000;0.000;2022-12-20T07:08:48;77171.09;;;-142.58;83.14
31183;BME280;17813;0.000;0.000;2022-12-20T07:11:15;77171.09;;;-142.58;82.26
31183;BME280;17813;0.000;0.000;2022-12-20T07:14:01;77177.19;;;-142.58;82.81
31183;BME280;17813;0.000;0.000;2022-12-20T07:16:37;77179.22;;;-142.58;82.57
31183;BME280;17813;0.000;0.000;2022-12-20T07:19:04;77179.22;;;-142.58;82.98
31183;BME280;17813;0.000;0.000;2022-12-20T07:21:35;77187.38;;;-142.58;82.70
31183;BME280;17813;0.000;0.000;2022-12-20T07:24:05;77169.06;;;-142.58;81.78
31183;BME280;17813;0.000;0.000;2022-12-20T07:26:33;77164.97;;;-142.58;83.01
31183;BME280;17813;0.000;0.000;2022-12-20T07:29:00;77144.63;;;-142.58;82.17
31183;BME280;17813;0.000;0.000;2022-12-20T07:31:46;77138.53;;;-142.58;82.72
31183;BME280;17813;0.000;0.000;2022-12-20T07:34:12;77134.47;;;-142.58;82.88
31183;BME280;17813;0.000;0.000;2022-12-20T07:36:40;77138.53;;;-142.58;82.67
31183;BME280;17813;0.000;0.000;2022-12-20T07:39:07;77134.47;;;-142.58;82.96
31183;BME280;17813;0.000;0.000;2022-12-20T07:41:35;77132.44;;;-142.58;82.65
31183;BME280;17813;0.000;0.000;2022-12-20T07:44:02;77118.19;;;-142.58;83.04
31183;BME280;17813;0.000;0.000;2022-12-20T07:46:30;77116.16;;;-142.58;81.90
31183;BME280;17813;0.000;0.000;2022-12-20T07:49:00;77114.09;;;-142.58;81.80
31183;BME280;17813;0.000;0.000;2022-12-20T07:51:36;77105.97;;;-142.58;82.45
31183;BME280;17813;0.000;0.000;2022-12-20T07:54:23;77101.91;;;-143.88;83.05
31183;BME280;17813;0.000;0.000;2022-12-20T07:57:24;77140.56;;;-142.58;81.93
31183;BME280;17813;0.000;0.000;2022-12-20T07:59:57;77110.03;;;-142.58;83.08
31183;BME280;17813;0.000;0.000;2022-12-20T08:02:39;77103.94;;;-142.58;82.71
31183;BME280;17813;0.000;0.000;2022-12-20T08:05:09;77079.53;;;-142.58;82.80
31183;BME280;17813;0.000;0.000;2022-12-20T08:07:53;77091.72;;;-142.58;82.13
31183;BME280;17813;0.000;0.000;2022-12-20T08:10:22;77099.88;;;-142.58;82.71
31183;BME280;17813;0.000;0.000;2022-12-20T08:13:07;77101.91;;;-142.58;83.03
31183;BME280;17813;0.000;0.000;2022-12-20T08:15:39;77101.91;;;-142.58;82.91
31183;BME280;17813;0.000;0.000;2022-12-20T08:18:07;77108.00;;;-142.58;82.55
31183;BME280;17813;0.000;0.000;2022-12-20T08:20:34;77114.09;;;-142.58;82.27
31183;BME280;17813;0.000;0.000;2022-12-20T08:23:03;77112.06;;;-143.88;81.50
31183;BME280;17813;0.000;0.000;2022-12-20T08:25:32;77136.50;;;-142.58;82.23
31183;BME280;17813;0.000;0.000;2022-12-20T08:27:59;77099.88;;;-142.58;81.22
31183;BME280;17813;0.000;0.000;2022-12-20T08:30:37;77095.81;;;-142.58;82.17
31183;BME280;17813;0.000;0.000;2022-12-20T08:33:08;77067.31;;;-142.58;81.92
31183;BME280;17813;0.000;0.000;2022-12-20T08:35:35;77041.00;;;-143.88;82.04
31183;BME280;17813;0.000;0.000;2022-12-20T08:38:04;77036.78;;;-143.88;81.61
31183;BME280;17813;0.000;0.000;2022-12-20T08:40:32;99729.94;;;4.63;80.76
31183;BME280;17813;0.000;0.000;2022-12-20T08:42:59;77024.59;;;-143.88;80.76
31183;BME280;17813;0.000;0.000;2022-12-20T08:45:50;77055.09;;;-143.88;81.72
31183;BME280;17813;0.000;0.000;2022-12-20T08:48:22;99709.03;;;4.60;81.54
31183;BME280;17813;0.000;0.000;2022-12-20T08:51:03;99712.53;;;4.60;80.83
31183;BME280;17813;0.000;0.000;2022-12-20T08:53:50;77014.41;;;-143.88;80.83
31183;BME280;17813;0.000;0.000;2022-12-20T08:56:20;77024.59;;;-143.88;80.31
31183;BME280;17813;0.000;0.000;2022-12-20T08:58:48;99715.72;;;4.95;77.27
31183;BME280;17813;0.000;0.000;2022-12-20T09:01:18;99720.81;;;4.99;75.94
31183;BME280;17813;0.000;0.000;2022-12-20T09:03:50;99720.59;;;5.05;75.64
31183;BME280;17813;0.000;0.000;2022-12-20T09:06:45;99724.44;;;4.95;74.84
31183;BME280;17813;0.000;0.000;2022-12-20T09:09:30;99725.16;;;5.00;75.04
31183;BME280;17813;0.000;0.000;2022-12-20T09:12:01;99723.53;;;4.96;75.56
31183;BME280;17813;0.000;0.000;2022-12-20T09:15:06;99716.84;;;4.88;75.93
31183;BME280;17813;0.000;0.000;2022-12-20T09:17:52;99717.63;;;4.90;76.25
31183;BME280;17813;0.000;0.000;2022-12-20T09:20:19;99720.84;;;4.98;76.13
31183;BME280;17813;0.000;0.000;2022-12-20T09:22:47;99724.88;;;5.08;76.09
31183;BME280;17813;0.000;0.000;2022-12-20T09:25:15;99721.91;;;5.17;76.58
31183;BME280;17813;0.000;0.000;2022-12-20T09:27:45;99722.38;;;5.30;76.42
31183;BME280;17813;0.000;0.000;2022-12-20T09:30:14;99724.88;;;5.33;76.31
31183;BME280;17813;0.000;0.000;2022-12-20T09:32:41;99709.63;;;5.42;76.05
31183;BME280;17813;0.000;0.000;2022-12-20T09:35:19;99716.13;;;5.32;75.52
31183;BME280;17813;0.000;0.000;2022-12-20T09:38:05;99711.91;;;5.28;75.38
31183;BME280;17813;0.000;0.000;2022-12-20T09:40:32;99701.75;;;5.42;75.26
31183;BME280;17813;0.000;0.000;2022-12-20T09:43:04;99699.09;;;5.42;74.63
31183;BME280;17813;0.000;0.000;2022-12-20T09:45:36;99698.25;;;5.42;74.69
31183;BME280;17813;0.000;0.000;2022-12-20T09:54:21;99701.22;;;5.08;74.61
31183;BME280;17813;0.000;0.000;2022-12-20T09:57:02;99702.56;;;4.95;75.02
31183;BME280;17813;0.000;0.000;2022-12-20T09:59:34;99699.78;;;4.99;75.01
31183;BME280;17813;0.000;0.000;2022-12-20T10:02:09;99702.50;;;4.96;74.87
31183;BME280;17813;0.000;0.000;2022-12-20T10:04:38;99700.09;;;4.90;75.29
31183;BME280;17813;0.000;0.000;2022-12-20T10:15:23;99682.81;;;5.08;75.63
31183;BME280;17813;0.000;0.000;2022-12-20T10:18:11;99665.97;;;5.13;75.30
31183;BME280;17813;0.000;0.000;2022-12-20T10:23:41;76926.91;;;-142.58;74.67
31183;BME280;17813;0.000;0.000;2022-12-20T10:26:13;99646.22;;;5.27;75.49
31183;BME280;17813;0.000;0.000;2022-12-20T10:28:40;99645.88;;;5.36;74.62
31183;BME280;17813;0.000;0.000;2022-12-20T10:31:15;99650.91;;;5.42;75.03
31183;BME280;17813;0.000;0.000;2022-12-20T10:33:42;99651.66;;;5.45;74.93
31183;BME280;17813;0.000;0.000;2022-12-20T10:38:50;99632.72;;;5.36;75.29
31183;BME280;17813;0.000;0.000;2022-12-20T10:41:21;99633.81;;;5.30;74.62
31183;BME280;17813;0.000;0.000;2022-12-20T10:46:23;99650.34;;;5.34;74.57
31183;BME280;17813;0.000;0.000;2022-12-20T10:49:28;99629.41;;;5.31;74.28
31183;BME280;17813;0.000;0.000;2022-12-20T10:54:38;99629.25;;;5.35;74.45
31183;BME280;17813;0.000;0.000;2022-12-20T10:57:27;99623.19;;;5.33;74.69
31183;BME280;17813;0.000;0.000;2022-12-20T11:00:04;99614.44;;;5.33;74.40
31183;BME280;17813;0.000;0.000;2022-12-20T11:02:37;99609.13;;;5.34;74.28
31183;BME280;17813;0.000;0.000;2022-12-20T11:07:58;99600.59;;;5.28;74.03
31183;BME280;17813;0.000;0.000;2022-12-20T11:10:33;99593.94;;;5.17;74.60
31183;BME280;17813;0.000;0.000;2022-12-20T11:13:03;99605.19;;;5.23;74.35
31183;BME280;17813;0.000;0.000;2022-12-20T11:15:33;99613.63;;;5.31;74.11
31183;BME280;17813;0.000;0.000;2022-12-20T11:18:25;99605.31;;;5.18;73.75
31183;BME280;17813;0.000;0.000;2022-12-20T11:23:44;99605.97;;;5.25;73.34
31183;BME280;17813;0.000;0.000;2022-12-20T11:26:48;99606.34;;;5.14;73.47
31183;BME280;17813;0.000;0.000;2022-12-20T11:29:37;99596.75;;;5.13;74.10
31183;BME280;17813;0.000;0.000;2022-12-20T11:35:24;99585.25;;;5.15;73.60
31183;BME280;17813;0.000;0.000;2022-12-20T11:41:28;99573.63;;;4.99;73.42
31183;BME280;17813;0.000;0.000;2022-12-20T11:48:09;76851.63;;;-142.58;73.24
31183;BME280;17813;0.000;0.000;2022-12-20T11:52:51;76869.94;;;-143.88;72.50
31183;BME280;17813;0.000;0.000;2022-12-20T11:58:09;99553.72;;;4.92;72.57
31183;BME280;17813;0.000;0.000;2022-12-20T12:00:43;76849.59;;;-143.88;72.57
31183;BME280;17813;0.000;0.000;2022-12-20T12:03:52;99531.91;;;4.90;72.34
31183;BME280;17813;0.000;0.000;2022-12-20T12:06:36;99536.38;;;4.88;72.60
31183;BME280;17813;0.000;0.000;2022-12-20T12:09:23;76841.47;;;-143.88;72.60
31183;BME280;17813;0.000;0.000;2022-12-20T12:18:06;99525.78;;;4.90;72.92
31183;BME280;17813;0.000;0.000;2022-12-20T12:28:53;99507.59;;;5.07;72.68
31183;BME280;17813;0.000;0.000;2022-12-20T12:31:27;99506.63;;;5.09;73.60
31183;BME280;17813;0.000;0.000;2022-12-20T12:39:48;99511.16;;;5.06;74.21
31183;BME280;17813;0.000;0.000;2022-12-20T12:48:35;99502.34;;;5.07;73.75
31183;BME280;17813;0.000;0.000;2022-12-20T12:51:04;76788.69;;;-143.88;73.75
31183;BME280;17813;0.000;0.000;2022-12-20T12:53:53;99489.94;;;5.10;73.68
31183;BME280;17813;0.000;0.000;2022-12-20T12:56:29;99494.22;;;5.13;73.86
31183;BME280;17813;0.000;0.000;2022-12-20T13:04:27;99492.56;;;5.10;73.01
31183;BME280;17813;0.000;0.000;2022-12-20T13:06:58;99493.19;;;5.17;72.73
31183;BME280;17813;0.000;0.000;2022-12-20T13:11:55;99490.91;;;5.31;72.16
31183;BME280;17813;0.000;0.000;2022-12-20T13:17:37;99483.06;;;5.30;72.60
31183;BME280;17813;0.000;0.000;2022-12-20T13:20:14;99484.06;;;5.27;72.92
31183;BME280;17813;0.000;0.000;2022-12-20T13:25:38;99474.25;;;5.31;73.07
31183;BME280;17813;0.000;0.000;2022-12-20T13:33:47;99475.00;;;5.34;73.50
31183;BME280;17813;0.000;0.000;2022-12-20T13:36:34;99469.13;;;5.28;73.08
31183;BME280;17813;0.000;0.000;2022-12-20T13:39:28;99472.81;;;5.24;73.25
31183;BME280;17813;0.000;0.000;2022-12-20T13:42:12;99471.44;;;5.13;73.33
31183;BME280;17813;0.000;0.000;2022-12-20T13:44:43;99479.13;;;5.18;73.22
31183;BME280;17813;0.000;0.000;2022-12-20T13:49:51;99484.38;;;-142.58;73.46
31183;BME280;17813;0.000;0.000;2022-12-20T13:52:20;99448.75;;;5.11;73.10
31183;BME280;17813;0.000;0.000;2022-12-20T13:54:52;99467.31;;;5.06;73.37
31183;BME280;17813;0.000;0.000;2022-12-20T13:57:43;99476.19;;;5.04;73.73
31183;BME280;17813;0.000;0.000;2022-12-20T14:00:21;99477.28;;;4.98;73.48
31183;BME280;17813;0.000;0.000;2022-12-20T14:02:51;99475.44;;;5.00;73.92
31183;BME280;17813;0.000;0.000;2022-12-20T14:05:23;99456.25;;;4.98;73.58
31183;BME280;17813;0.000;0.000;2022-12-20T14:08:13;76766.19;;;-142.58;73.58
31183;BME280;17813;0.000;0.000;2022-12-20T14:10:42;99452.16;;;4.91;74.35
31183;BME280;17813;0.000;0.000;2022-12-20T14:13:26;99452.91;;;4.95;74.71
31183;BME280;17813;0.000;0.000;2022-12-20T14:15:54;76768.22;;;-143.88;74.71
31183;BME280;17813;0.000;0.000;2022-12-20T14:18:24;99452.66;;;5.01;74.29
31183;BME280;17813;0.000;0.000;2022-12-20T14:20:57;76760.09;;;-143.88;74.29
31183;BME280;17813;0.000;0.000;2022-12-20T14:23:46;99452.97;;;4.93;74.17
31183;BME280;17813;0.000;0.000;2022-12-20T14:26:17;76770.25;;;-143.88;74.17
31183;BME280;17813;0.000;0.000;2022-12-20T14:28:49;99441.78;;;4.88;74.61
31183;BME280;17813;0.000;0.000;2022-12-20T14:36:40;99438.22;;;4.89;74.91
31183;BME280;17813;0.000;0.000;2022-12-20T14:39:33;99439.81;;;4.93;74.67
31183;BME280;17813;0.000;0.000;2022-12-20T14:44:38;99435.78;;;5.06;74.41
31183;BME280;17813;0.000;0.000;2022-12-20T14:47:22;99442.69;;;5.09;74.30
31183;BME280;17813;0.000;0.000;2022-12-20T14:50:01;99444.72;;;5.02;74.32
31183;BME280;17813;0.000;0.000;2022-12-20T15:07:55;99406.13;;;5.03;74.11
31183;BME280;17813;0.000;0.000;2022-12-20T15:10:35;99405.28;;;5.02;73.40
31183;BME280;17813;0.000;0.000;2022-12-20T15:13:03;76721.44;;;-142.58;73.40
31183;BME280;17813;0.000;0.000;2022-12-20T15:15:30;99420.38;;;4.97;74.02
31183;BME280;17813;0.000;0.000;2022-12-20T15:17:57;76739.75;;;-143.88;74.02
31183;BME280;17813;0.000;0.000;2022-12-20T15:20:24;99436.03;;;5.00;73.83
31183;BME280;17813;0.000;0.000;2022-12-20T15:22:51;99432.59;;;4.98;74.19
31183;BME280;17813;0.000;0.000;2022-12-20T15:25:18;99429.97;;;4.98;73.67
31183;BME280;17813;0.000;0.000;2022-12-20T15:27:45;99421.28;;;4.96;74.27
31183;BME280;17813;0.000;0.000;2022-12-20T15:30:13;99427.84;;;4.86;74.60
31183;BME280;17813;0.000;0.000;2022-12-20T15:32:41;99432.28;;;4.84;74.51
31183;BME280;17813;0.000;0.000;2022-12-20T15:35:14;99441.31;;;4.77;74.52
31183;BME280;17813;0.000;0.000;2022-12-20T15:37:42;76782.47;;;-143.88;74.52
31183;BME280;17813;0.000;0.000;2022-12-20T15:40:13;76804.84;;;-143.88;74.33
31183;BME280;17813;0.000;0.000;2022-12-20T15:42:42;99431.19;;;4.90;74.76
31183;BME280;17813;0.000;0.000;2022-12-20T15:45:15;76758.03;;;-143.88;74.76
31183;BME280;17813;0.000;0.000;2022-12-20T15:47:42;99424.09;;;4.92;74.60